Thruxton — D5PI2 — position and weather

sailwx.info

Track history (hours):
 
Tides and Currents Weather Stations Pressure Air Temp Water Temp Dewpoint Dewpoint Depression Visibility Wind Speed Wind Dir Waves Ship Positions

Thruxton

Last reported at 2018-Apr-07 09:10 UTC. Time now 2018-Apr-24 02:45 UTC.
Position N 36°17' E 015°30'.
Warning: this ship's position is 16 days out of date.

Length 199 m; draft 9.2 m.

Type: Cargo ship. MMSI: 636018347.

Date/timePositionNaut miles runAvg speedWind from/ knotsBaromVisibWave heightAir tempDewpointWater temp
2018-Apr-07 09:10N 36°17' E 015°30'316.0
2018-Apr-07 08:58N 36°18' E 015°26'817.4
2018-Apr-07 08:29N 36°20' E 015°16'715.4
2018-Apr-07 08:00N 36°22' E 015°07'917.1
2018-Apr-07 07:30N 36°25' E 014°57'817.0
2018-Apr-07 07:00N 36°27' E 014°47'816.8
2018-Apr-07 06:30N 36°30' E 014°37'816.7
2018-Apr-07 06:00N 36°33' E 014°28'816.6
2018-Apr-07 05:30N 36°37' E 014°18'816.4
2018-Apr-07 05:00N 36°41' E 014°09'816.3
2018-Apr-07 04:30N 36°45' E 014°00'816.0
2018-Apr-07 04:00N 36°49' E 013°52'816.2
2018-Apr-07 03:30N 36°53' E 013°43'816.3
2018-Apr-07 03:00N 36°56' E 013°34'816.4
2018-Apr-07 02:30N 36°60' E 013°25'14715.8
2018-Apr-06 17:14N 38°06' E 010°40'2015.8
2018-Apr-06 15:58N 38°13' E 010°15'715.7
2018-Apr-06 15:30N 38°16' E 010°07'1815.5
2018-Apr-06 14:22N 38°22' E 009°46'615.5
2018-Apr-06 14:00N 38°24' E 009°39'815.3
2018-Apr-06 13:30N 38°26' E 009°30'1015.4
2018-Apr-06 12:50N 38°30' E 009°18'515.7
2018-Apr-06 12:30N 38°32' E 009°11'1415.7
2018-Apr-06 11:36N 38°36' E 008°54'215.7
2018-Apr-06 11:29N 38°37' E 008°52'815.8
2018-Apr-06 11:00N 38°39' E 008°43'2216.3
2018-Apr-06 09:40N 38°48' E 008°17'416.2
2018-Apr-06 09:24N 38°50' E 008°13'816.7
2018-Apr-06 08:56N 38°54' E 008°04'11416.6
2018-Apr-06 02:01N 39°47' E 005°53'016.9
2018-Apr-06 02:00N 39°47' E 005°53'2516.4
2018-Apr-06 00:29N 39°59' E 005°24'15116.2
2018-Apr-05 15:11N 41°08' E 002°28'315.9
2018-Apr-05 15:00N 41°09' E 002°25'816.1
2018-Apr-05 14:30N 41°13' E 002°15'713.1
2018-Apr-05 14:00N 41°19' E 002°10'2 3.5
2018-Apr-05 13:30N 41°20' E 002°09'0 0.9
2018-Apr-05 12:58N 41°20' E 002°09'0 0.0
2018-Apr-05 12:28N 41°20' E 002°09'0 0.0
2018-Apr-05 11:58N 41°20' E 002°09'0 0.0
2018-Apr-05 11:28N 41°20' E 002°09'0 0.0
2018-Apr-05 10:58N 41°20' E 002°09'0 0.0
2018-Apr-05 10:28N 41°20' E 002°09'0 0.0
2018-Apr-05 09:55N 41°20' E 002°09'0 0.0
2018-Apr-05 09:28N 41°20' E 002°09'0 0.0
2018-Apr-05 08:58N 41°20' E 002°09'0 0.0
2018-Apr-05 08:28N 41°20' E 002°09'0 0.0
2018-Apr-05 07:58N 41°20' E 002°09'0 0.0
2018-Apr-05 07:28N 41°20' E 002°09'0 0.0
2018-Apr-05 06:58N 41°20' E 002°09'0 0.0
2018-Apr-05 06:28N 41°20' E 002°09'0 0.0
2018-Apr-05 05:58N 41°20' E 002°09'0 0.0
2018-Apr-05 05:28N 41°20' E 002°09'0 0.0
2018-Apr-05 04:58N 41°20' E 002°09'0 0.0
2018-Apr-05 04:28N 41°20' E 002°09'0 0.0
2018-Apr-05 03:58N 41°20' E 002°09'0 0.0
2018-Apr-05 03:25N 41°20' E 002°09'0 0.0
2018-Apr-05 02:58N 41°20' E 002°09'1 1.2
2018-Apr-05 02:29N 41°20' E 002°09'2 4.7
2018-Apr-05 02:01N 41°18' E 002°10'4 7.0
2018-Apr-05 01:30N 41°15' E 002°11'5 9.6
2018-Apr-05 01:00N 41°10' E 002°11'612.5
2018-Apr-05 00:30N 41°05' E 002°05'612.9
2018-Apr-05 00:00N 41°00' E 001°60'815.6
2018-Apr-04 23:30N 40°53' E 001°55'19016.6
2018-Apr-04 12:03N 38°06' W 000°00'118.3
2018-Apr-04 11:59N 38°05' W 000°01'918.2
2018-Apr-04 11:28N 37°57' W 000°09'818.0
2018-Apr-04 11:00N 37°50' W 000°14'917.8
2018-Apr-04 10:30N 37°44' W 000°21'917.5
2018-Apr-04 10:00N 37°36' W 000°28'917.9
2018-Apr-04 09:30N 37°30' W 000°35'1019.1
2018-Apr-04 09:01N 37°23' W 000°44'1019.5
2018-Apr-04 08:30N 37°16' W 000°53'919.0
2018-Apr-04 08:00N 37°10' W 001°02'1018.8
2018-Apr-04 07:30N 37°04' W 001°12'20318.6
2018-Apr-03 20:36N 36°00' W 005°11'220.9
2018-Apr-03 20:30N 36°00' W 005°14'1121.0
2018-Apr-03 20:00N 35°58' W 005°26'23816.8
2018-Apr-03 05:49N 37°48' W 009°50'718.4
2018-Apr-03 05:26N 37°55' W 009°52'818.5
2018-Apr-03 05:00N 38°02' W 009°55'918.1
2018-Apr-03 04:30N 38°11' W 009°58'918.2
2018-Apr-03 04:00N 38°20' W 010°00'918.2
2018-Apr-03 03:29N 38°29' W 010°03'918.2
2018-Apr-03 03:00N 38°38' W 010°05'918.0
2018-Apr-03 02:30N 38°47' W 010°06'917.9
2018-Apr-03 02:00N 38°56' W 010°06'917.5
2018-Apr-03 01:30N 39°05' W 010°06'917.7
2018-Apr-03 01:00N 39°13' W 010°06'917.9
2018-Apr-03 00:30N 39°23' W 010°06'918.1
2018-Apr-03 00:00N 39°32' W 010°06'67115.4
2018-Apr-01 04:32N 49°43' W 003°36'317.3
2018-Apr-01 04:22N 49°45' W 003°32'617.8
2018-Apr-01 04:00N 49°48' W 003°24'918.6
2018-Apr-01 03:30N 49°54' W 003°13'1019.6
2018-Apr-01 03:00N 49°59' W 002°60'1020.3
2018-Apr-01 02:30N 50°02' W 002°45'1121.2
2018-Apr-01 02:00N 50°05' W 002°29'3621.4
2018-Apr-01 00:18N 50°16' W 001°35'619.7
2018-Mar-31 23:59N 50°19' W 001°26'919.2
2018-Mar-31 23:30N 50°25' W 001°15'918.5
2018-Mar-31 23:00N 50°32' W 001°05'815.7
2018-Mar-31 22:30N 50°38' W 000°58'5 9.6
2018-Mar-31 22:00N 50°43' W 000°60'713.6
2018-Mar-31 21:30N 50°46' W 001°10'611.6
2018-Mar-31 21:00N 50°48' W 001°18'4 7.2
2018-Mar-31 20:31N 50°51' W 001°20'3 5.8
2018-Mar-31 20:00N 50°53' W 001°24'0 0.0
2018-Mar-31 19:28N 50°53' W 001°24'0 0.0
2018-Mar-31 18:58N 50°53' W 001°24'0 0.0
2018-Mar-31 18:28N 50°53' W 001°24'0 0.0
2018-Mar-31 17:58N 50°53' W 001°24'0 0.0
2018-Mar-31 17:28N 50°53' W 001°24'0 0.0
2018-Mar-31 16:58N 50°53' W 001°24'0 0.0
2018-Mar-31 16:28N 50°53' W 001°24'0 0.0
2018-Mar-31 15:58N 50°53' W 001°24'0 0.0
2018-Mar-31 15:28N 50°53' W 001°24'0 0.0
2018-Mar-31 14:58N 50°53' W 001°24'0 0.0
2018-Mar-31 14:28N 50°53' W 001°24'0 0.0
2018-Mar-31 13:58N 50°53' W 001°24'0 0.0
2018-Mar-31 13:28N 50°53' W 001°24'0 0.0
2018-Mar-31 12:58N 50°53' W 001°24'0 0.0
2018-Mar-31 12:28N 50°53' W 001°24'0 0.0
2018-Mar-31 11:58N 50°53' W 001°24'0 0.7
2018-Mar-31 11:30N 50°53' W 001°23'2 4.8
2018-Mar-31 11:00N 50°51' W 001°21'4 7.6
2018-Mar-31 10:30N 50°48' W 001°18'5 9.8
2018-Mar-31 10:00N 50°46' W 001°11'612.3
2018-Mar-31 09:30N 50°44' W 001°02'510.8
2018-Mar-31 09:00N 50°39' W 000°58'4 7.0
2018-Mar-31 08:30N 50°36' W 000°54'4 8.3
2018-Mar-31 08:00N 50°35' W 000°48'4 7.7
2018-Mar-31 07:30N 50°34' W 000°42'4 8.0
2018-Mar-31 07:00N 50°33' W 000°36'612.3
2018-Mar-31 06:30N 50°33' W 000°26'714.5
2018-Mar-31 06:00N 50°33' W 000°15'917.8
2018-Mar-31 05:30N 50°33' W 000°01'918.3
2018-Mar-31 05:00N 50°35' E 000°13'918.8
2018-Mar-31 04:30N 50°37' E 000°27'918.6
2018-Mar-31 04:00N 50°41' E 000°41'918.3
2018-Mar-31 03:30N 50°46' E 000°53'917.8
2018-Mar-31 03:00N 50°51' E 001°04'917.0
2018-Mar-31 02:28N 50°58' E 001°15'716.0
2018-Mar-31 02:00N 51°02' E 001°24'815.1
2018-Mar-31 01:30N 51°07' E 001°33'714.5
2018-Mar-31 01:00N 51°12' E 001°42'714.7
2018-Mar-31 00:30N 51°17' E 001°49'815.2
2018-Mar-31 00:01N 51°24' E 001°56'714.0
2018-Mar-30 23:30N 51°24' E 002°07'816.8
2018-Mar-30 23:00N 51°21' E 002°20'916.7
2018-Mar-30 22:29N 51°23' E 002°34'713.8
2018-Mar-30 22:00N 51°22' E 002°45'613.2
2018-Mar-30 21:31N 51°23' E 002°55'714.5
2018-Mar-30 21:00N 51°24' E 003°07'714.8
2018-Mar-30 20:30N 51°25' E 003°18'714.5
2018-Mar-30 20:00N 51°25' E 003°30'510.0
2018-Mar-30 19:30N 51°26' E 003°38'612.5
2018-Mar-30 19:01N 51°22' E 003°45'714.9
2018-Mar-30 18:31N 51°23' E 003°57'4 7.3
2018-Mar-30 18:01N 51°23' E 004°03'612.7
2018-Mar-30 17:31N 51°23' E 004°13'611.1
2018-Mar-30 17:00N 51°18' E 004°16'2 3.2
2018-Mar-30 16:30N 51°17' E 004°15'0 0.0
2018-Mar-30 16:00N 51°17' E 004°15'1 1.1
2018-Mar-30 15:30N 51°16' E 004°14'1 1.2
2018-Mar-30 15:00N 51°16' E 004°13'0 0.0
2018-Mar-30 14:30N 51°16' E 004°13'0 0.0
2018-Mar-30 14:00N 51°16' E 004°13'0 0.0
2018-Mar-30 13:30N 51°16' E 004°13'0 0.0
2018-Mar-30 13:00N 51°16' E 004°13'0 0.0
2018-Mar-30 12:27N 51°16' E 004°13'0 0.0
2018-Mar-30 12:00N 51°16' E 004°13'0 0.0
2018-Mar-30 11:30N 51°16' E 004°13'0 0.0
2018-Mar-30 11:00N 51°16' E 004°13'0 0.0
2018-Mar-30 10:30N 51°16' E 004°13'0 0.0
2018-Mar-30 10:00N 51°16' E 004°13'0 0.0
2018-Mar-30 09:30N 51°16' E 004°13'0 0.0
2018-Mar-30 09:00N 51°16' E 004°13'0 0.0
2018-Mar-30 08:30N 51°16' E 004°13'0 0.0
2018-Mar-30 08:00N 51°16' E 004°13'0 0.0
2018-Mar-30 07:27N 51°16' E 004°13'0 0.0
2018-Mar-30 07:00N 51°16' E 004°13'0 0.0
2018-Mar-30 06:30N 51°16' E 004°13'0 0.0
2018-Mar-30 05:57N 51°16' E 004°13'0 0.0
2018-Mar-30 05:30N 51°16' E 004°13'0 0.0
2018-Mar-30 05:00N 51°16' E 004°13'0 0.0
2018-Mar-30 04:30N 51°16' E 004°13'0 0.0
2018-Mar-30 04:00N 51°16' E 004°13'0 0.0
2018-Mar-30 03:30N 51°16' E 004°13'0 0.0
2018-Mar-30 02:57N 51°16' E 004°13'0 0.0
2018-Mar-30 02:30N 51°16' E 004°13'0 0.0
2018-Mar-30 01:57N 51°16' E 004°13'0 0.0
2018-Mar-30 01:29N 51°16' E 004°13'0 0.0
2018-Mar-30 00:59N 51°16' E 004°13'0 0.0
2018-Mar-30 00:29N 51°16' E 004°13'0 0.0
2018-Mar-29 23:59N 51°16' E 004°13'0 0.0
2018-Mar-29 23:29N 51°16' E 004°13'0 0.0
2018-Mar-29 22:59N 51°16' E 004°13'0 0.0
2018-Mar-29 22:29N 51°16' E 004°13'0 0.0
2018-Mar-29 21:59N 51°16' E 004°13'0 0.0
2018-Mar-29 21:29N 51°16' E 004°13'0 0.0
2018-Mar-29 20:59N 51°16' E 004°13'0 0.0
2018-Mar-29 20:29N 51°16' E 004°13'0 0.0
2018-Mar-29 19:59N 51°16' E 004°13'0 0.0
2018-Mar-29 19:29N 51°16' E 004°13'0 0.0
2018-Mar-29 18:59N 51°16' E 004°13'0 0.0
2018-Mar-29 18:29N 51°16' E 004°13'0 0.0
2018-Mar-29 17:59N 51°16' E 004°13'0 0.0
2018-Mar-29 17:29N 51°16' E 004°13'0 0.0
2018-Mar-29 16:59N 51°16' E 004°13'0 0.0
2018-Mar-29 16:29N 51°16' E 004°13'0 0.0
2018-Mar-29 15:59N 51°16' E 004°13'0 0.0
2018-Mar-29 15:29N 51°16' E 004°13'0 0.0
2018-Mar-29 14:59N 51°16' E 004°13'0 0.0
2018-Mar-29 14:29N 51°16' E 004°13'0 0.0
2018-Mar-29 13:59N 51°16' E 004°13'0 0.0
2018-Mar-29 13:29N 51°16' E 004°13'0 0.0
2018-Mar-29 12:59N 51°16' E 004°13'0 0.0
2018-Mar-29 12:29N 51°16' E 004°13'0 0.0
2018-Mar-29 11:59N 51°16' E 004°13'0 0.0
2018-Mar-29 11:29N 51°16' E 004°13'0 0.0
2018-Mar-29 10:59N 51°16' E 004°13'0 0.0
2018-Mar-29 10:29N 51°16' E 004°13'0 0.0
2018-Mar-29 09:59N 51°16' E 004°13'0 0.0
2018-Mar-29 09:29N 51°16' E 004°13'0 0.0
2018-Mar-29 08:59N 51°16' E 004°13'0 0.0
2018-Mar-29 08:29N 51°16' E 004°13'0 0.0
2018-Mar-29 07:59N 51°16' E 004°13'0 0.0
2018-Mar-29 07:29N 51°16' E 004°13'0 0.0
2018-Mar-29 06:59N 51°16' E 004°13'0 0.0
2018-Mar-29 06:29N 51°16' E 004°13'0 0.0
2018-Mar-29 05:59N 51°16' E 004°13'0 0.0
2018-Mar-29 05:29N 51°16' E 004°13'0 0.0
2018-Mar-29 04:59N 51°16' E 004°13'0 0.0
2018-Mar-29 04:29N 51°16' E 004°13'0 0.0
2018-Mar-29 03:59N 51°16' E 004°13'0 0.0
2018-Mar-29 03:29N 51°16' E 004°13'0 0.0
2018-Mar-29 02:59N 51°16' E 004°13'0 0.0
2018-Mar-29 02:29N 51°16' E 004°13'0 0.0
2018-Mar-29 01:59N 51°16' E 004°13'0 0.0
2018-Mar-29 01:29N 51°16' E 004°13'0 0.0
2018-Mar-29 00:59N 51°16' E 004°13'0 0.0
2018-Mar-29 00:29N 51°16' E 004°13'0 0.0
2018-Mar-28 23:59N 51°16' E 004°13'1 1.1
2018-Mar-28 23:31N 51°17' E 004°14'1 1.6
2018-Mar-28 23:00N 51°17' E 004°15'0 0.1
2018-Mar-28 22:30N 51°17' E 004°15'2 4.1
2018-Mar-28 22:01N 51°19' E 004°16'510.1
2018-Mar-28 21:31N 51°23' E 004°13'510.2
2018-Mar-28 21:01N 51°22' E 004°05'510.5
2018-Mar-28 20:31N 51°26' E 003°58'713.1
2018-Mar-28 20:00N 51°21' E 003°51'612.2
2018-Mar-28 19:30N 51°24' E 003°43'4 8.4
2018-Mar-28 19:00N 51°26' E 003°37'5 9.6
2018-Mar-28 18:30N 51°25' E 003°30'815.7
2018-Mar-28 18:01N 51°24' E 003°17'815.7
2018-Mar-28 17:30N 51°24' E 003°05'612.3
2018-Mar-28 17:00N 51°30' E 003°03'917.8
2018-Mar-28 16:30N 51°38' E 003°11'713.4
2018-Mar-28 15:59N 51°45' E 003°13'4 7.5
2018-Mar-28 15:29N 51°48' E 003°09'5 9.4
2018-Mar-28 15:00N 51°51' E 003°04'7713.9
2018-Mar-28 09:27N 52°59' E 004°02'  
Track history (hours):
 
Tides and Currents Weather Stations Pressure Air Temp Water Temp Dewpoint Dewpoint Depression Visibility Wind Speed Wind Dir Waves Ship Positions

Thruxton

Last reported at 2018-Apr-07 09:10 UTC. Time now 2018-Apr-24 02:45 UTC.
Position N 36°17' E 015°30'.
Warning: this ship's position is 16 days out of date.

Length 199 m; draft 9.2 m.

Type: Cargo ship. MMSI: 636018347.

Date/timePositionNaut miles runAvg speedWind from/ knotsBaromVisibWave heightAir tempDewpointWater temp
2018-Apr-07 09:10N 36°17' E 015°30'316.0
2018-Apr-07 08:58N 36°18' E 015°26'817.4
2018-Apr-07 08:29N 36°20' E 015°16'715.4
2018-Apr-07 08:00N 36°22' E 015°07'917.1
2018-Apr-07 07:30N 36°25' E 014°57'817.0
2018-Apr-07 07:00N 36°27' E 014°47'816.8
2018-Apr-07 06:30N 36°30' E 014°37'816.7
2018-Apr-07 06:00N 36°33' E 014°28'816.6
2018-Apr-07 05:30N 36°37' E 014°18'816.4
2018-Apr-07 05:00N 36°41' E 014°09'816.3
2018-Apr-07 04:30N 36°45' E 014°00'816.0
2018-Apr-07 04:00N 36°49' E 013°52'816.2
2018-Apr-07 03:30N 36°53' E 013°43'816.3
2018-Apr-07 03:00N 36°56' E 013°34'816.4
2018-Apr-07 02:30N 36°60' E 013°25'14715.8
2018-Apr-06 17:14N 38°06' E 010°40'2015.8
2018-Apr-06 15:58N 38°13' E 010°15'715.7
2018-Apr-06 15:30N 38°16' E 010°07'1815.5
2018-Apr-06 14:22N 38°22' E 009°46'615.5
2018-Apr-06 14:00N 38°24' E 009°39'815.3
2018-Apr-06 13:30N 38°26' E 009°30'1015.4
2018-Apr-06 12:50N 38°30' E 009°18'515.7
2018-Apr-06 12:30N 38°32' E 009°11'1415.7
2018-Apr-06 11:36N 38°36' E 008°54'215.7
2018-Apr-06 11:29N 38°37' E 008°52'815.8
2018-Apr-06 11:00N 38°39' E 008°43'2216.3
2018-Apr-06 09:40N 38°48' E 008°17'416.2
2018-Apr-06 09:24N 38°50' E 008°13'816.7
2018-Apr-06 08:56N 38°54' E 008°04'11416.6
2018-Apr-06 02:01N 39°47' E 005°53'016.9
2018-Apr-06 02:00N 39°47' E 005°53'2516.4
2018-Apr-06 00:29N 39°59' E 005°24'15116.2
2018-Apr-05 15:11N 41°08' E 002°28'315.9
2018-Apr-05 15:00N 41°09' E 002°25'816.1
2018-Apr-05 14:30N 41°13' E 002°15'713.1
2018-Apr-05 14:00N 41°19' E 002°10'2 3.5
2018-Apr-05 13:30N 41°20' E 002°09'0 0.9
2018-Apr-05 12:58N 41°20' E 002°09'0 0.0
2018-Apr-05 12:28N 41°20' E 002°09'0 0.0
2018-Apr-05 11:58N 41°20' E 002°09'0 0.0
2018-Apr-05 11:28N 41°20' E 002°09'0 0.0
2018-Apr-05 10:58N 41°20' E 002°09'0 0.0
2018-Apr-05 10:28N 41°20' E 002°09'0 0.0
2018-Apr-05 09:55N 41°20' E 002°09'0 0.0
2018-Apr-05 09:28N 41°20' E 002°09'0 0.0
2018-Apr-05 08:58N 41°20' E 002°09'0 0.0
2018-Apr-05 08:28N 41°20' E 002°09'0 0.0
2018-Apr-05 07:58N 41°20' E 002°09'0 0.0
2018-Apr-05 07:28N 41°20' E 002°09'0 0.0
2018-Apr-05 06:58N 41°20' E 002°09'0 0.0
2018-Apr-05 06:28N 41°20' E 002°09'0 0.0
2018-Apr-05 05:58N 41°20' E 002°09'0 0.0
2018-Apr-05 05:28N 41°20' E 002°09'0 0.0
2018-Apr-05 04:58N 41°20' E 002°09'0 0.0
2018-Apr-05 04:28N 41°20' E 002°09'0 0.0
2018-Apr-05 03:58N 41°20' E 002°09'0 0.0
2018-Apr-05 03:25N 41°20' E 002°09'0 0.0
2018-Apr-05 02:58N 41°20' E 002°09'1 1.2
2018-Apr-05 02:29N 41°20' E 002°09'2 4.7
2018-Apr-05 02:01N 41°18' E 002°10'4 7.0
2018-Apr-05 01:30N 41°15' E 002°11'5 9.6
2018-Apr-05 01:00N 41°10' E 002°11'612.5
2018-Apr-05 00:30N 41°05' E 002°05'612.9
2018-Apr-05 00:00N 41°00' E 001°60'815.6
2018-Apr-04 23:30N 40°53' E 001°55'19016.6
2018-Apr-04 12:03N 38°06' W 000°00'118.3
2018-Apr-04 11:59N 38°05' W 000°01'918.2
2018-Apr-04 11:28N 37°57' W 000°09'818.0
2018-Apr-04 11:00N 37°50' W 000°14'917.8
2018-Apr-04 10:30N 37°44' W 000°21'917.5
2018-Apr-04 10:00N 37°36' W 000°28'917.9
2018-Apr-04 09:30N 37°30' W 000°35'1019.1
2018-Apr-04 09:01N 37°23' W 000°44'1019.5
2018-Apr-04 08:30N 37°16' W 000°53'919.0
2018-Apr-04 08:00N 37°10' W 001°02'1018.8
2018-Apr-04 07:30N 37°04' W 001°12'20318.6
2018-Apr-03 20:36N 36°00' W 005°11'220.9
2018-Apr-03 20:30N 36°00' W 005°14'1121.0
2018-Apr-03 20:00N 35°58' W 005°26'23816.8
2018-Apr-03 05:49N 37°48' W 009°50'718.4
2018-Apr-03 05:26N 37°55' W 009°52'818.5
2018-Apr-03 05:00N 38°02' W 009°55'918.1
2018-Apr-03 04:30N 38°11' W 009°58'918.2
2018-Apr-03 04:00N 38°20' W 010°00'918.2
2018-Apr-03 03:29N 38°29' W 010°03'918.2
2018-Apr-03 03:00N 38°38' W 010°05'918.0
2018-Apr-03 02:30N 38°47' W 010°06'917.9
2018-Apr-03 02:00N 38°56' W 010°06'917.5
2018-Apr-03 01:30N 39°05' W 010°06'917.7
2018-Apr-03 01:00N 39°13' W 010°06'917.9
2018-Apr-03 00:30N 39°23' W 010°06'918.1
2018-Apr-03 00:00N 39°32' W 010°06'67115.4
2018-Apr-01 04:32N 49°43' W 003°36'317.3
2018-Apr-01 04:22N 49°45' W 003°32'617.8
2018-Apr-01 04:00N 49°48' W 003°24'918.6
2018-Apr-01 03:30N 49°54' W 003°13'1019.6
2018-Apr-01 03:00N 49°59' W 002°60'1020.3
2018-Apr-01 02:30N 50°02' W 002°45'1121.2
2018-Apr-01 02:00N 50°05' W 002°29'3621.4
2018-Apr-01 00:18N 50°16' W 001°35'619.7
2018-Mar-31 23:59N 50°19' W 001°26'919.2
2018-Mar-31 23:30N 50°25' W 001°15'918.5
2018-Mar-31 23:00N 50°32' W 001°05'815.7
2018-Mar-31 22:30N 50°38' W 000°58'5 9.6
2018-Mar-31 22:00N 50°43' W 000°60'713.6
2018-Mar-31 21:30N 50°46' W 001°10'611.6
2018-Mar-31 21:00N 50°48' W 001°18'4 7.2
2018-Mar-31 20:31N 50°51' W 001°20'3 5.8
2018-Mar-31 20:00N 50°53' W 001°24'0 0.0
2018-Mar-31 19:28N 50°53' W 001°24'0 0.0
2018-Mar-31 18:58N 50°53' W 001°24'0 0.0
2018-Mar-31 18:28N 50°53' W 001°24'0 0.0
2018-Mar-31 17:58N 50°53' W 001°24'0 0.0
2018-Mar-31 17:28N 50°53' W 001°24'0 0.0
2018-Mar-31 16:58N 50°53' W 001°24'0 0.0
2018-Mar-31 16:28N 50°53' W 001°24'0 0.0
2018-Mar-31 15:58N 50°53' W 001°24'0 0.0
2018-Mar-31 15:28N 50°53' W 001°24'0 0.0
2018-Mar-31 14:58N 50°53' W 001°24'0 0.0
2018-Mar-31 14:28N 50°53' W 001°24'0 0.0
2018-Mar-31 13:58N 50°53' W 001°24'0 0.0
2018-Mar-31 13:28N 50°53' W 001°24'0 0.0
2018-Mar-31 12:58N 50°53' W 001°24'0 0.0
2018-Mar-31 12:28N 50°53' W 001°24'0 0.0
2018-Mar-31 11:58N 50°53' W 001°24'0 0.7
2018-Mar-31 11:30N 50°53' W 001°23'2 4.8
2018-Mar-31 11:00N 50°51' W 001°21'4 7.6
2018-Mar-31 10:30N 50°48' W 001°18'5 9.8
2018-Mar-31 10:00N 50°46' W 001°11'612.3
2018-Mar-31 09:30N 50°44' W 001°02'510.8
2018-Mar-31 09:00N 50°39' W 000°58'4 7.0
2018-Mar-31 08:30N 50°36' W 000°54'4 8.3
2018-Mar-31 08:00N 50°35' W 000°48'4 7.7
2018-Mar-31 07:30N 50°34' W 000°42'4 8.0
2018-Mar-31 07:00N 50°33' W 000°36'612.3
2018-Mar-31 06:30N 50°33' W 000°26'714.5
2018-Mar-31 06:00N 50°33' W 000°15'917.8
2018-Mar-31 05:30N 50°33' W 000°01'918.3
2018-Mar-31 05:00N 50°35' E 000°13'918.8
2018-Mar-31 04:30N 50°37' E 000°27'918.6
2018-Mar-31 04:00N 50°41' E 000°41'918.3
2018-Mar-31 03:30N 50°46' E 000°53'917.8
2018-Mar-31 03:00N 50°51' E 001°04'917.0
2018-Mar-31 02:28N 50°58' E 001°15'716.0
2018-Mar-31 02:00N 51°02' E 001°24'815.1
2018-Mar-31 01:30N 51°07' E 001°33'714.5
2018-Mar-31 01:00N 51°12' E 001°42'714.7
2018-Mar-31 00:30N 51°17' E 001°49'815.2
2018-Mar-31 00:01N 51°24' E 001°56'714.0
2018-Mar-30 23:30N 51°24' E 002°07'816.8
2018-Mar-30 23:00N 51°21' E 002°20'916.7
2018-Mar-30 22:29N 51°23' E 002°34'713.8
2018-Mar-30 22:00N 51°22' E 002°45'613.2
2018-Mar-30 21:31N 51°23' E 002°55'714.5
2018-Mar-30 21:00N 51°24' E 003°07'714.8
2018-Mar-30 20:30N 51°25' E 003°18'714.5
2018-Mar-30 20:00N 51°25' E 003°30'510.0
2018-Mar-30 19:30N 51°26' E 003°38'612.5
2018-Mar-30 19:01N 51°22' E 003°45'714.9
2018-Mar-30 18:31N 51°23' E 003°57'4 7.3
2018-Mar-30 18:01N 51°23' E 004°03'612.7
2018-Mar-30 17:31N 51°23' E 004°13'611.1
2018-Mar-30 17:00N 51°18' E 004°16'2 3.2
2018-Mar-30 16:30N 51°17' E 004°15'0 0.0
2018-Mar-30 16:00N 51°17' E 004°15'1 1.1
2018-Mar-30 15:30N 51°16' E 004°14'1 1.2
2018-Mar-30 15:00N 51°16' E 004°13'0 0.0
2018-Mar-30 14:30N 51°16' E 004°13'0 0.0
2018-Mar-30 14:00N 51°16' E 004°13'0 0.0
2018-Mar-30 13:30N 51°16' E 004°13'0 0.0
2018-Mar-30 13:00N 51°16' E 004°13'0 0.0
2018-Mar-30 12:27N 51°16' E 004°13'0 0.0
2018-Mar-30 12:00N 51°16' E 004°13'0 0.0
2018-Mar-30 11:30N 51°16' E 004°13'0 0.0
2018-Mar-30 11:00N 51°16' E 004°13'0 0.0
2018-Mar-30 10:30N 51°16' E 004°13'0 0.0
2018-Mar-30 10:00N 51°16' E 004°13'0 0.0
2018-Mar-30 09:30N 51°16' E 004°13'0 0.0
2018-Mar-30 09:00N 51°16' E 004°13'0 0.0
2018-Mar-30 08:30N 51°16' E 004°13'0 0.0
2018-Mar-30 08:00N 51°16' E 004°13'0 0.0
2018-Mar-30 07:27N 51°16' E 004°13'0 0.0
2018-Mar-30 07:00N 51°16' E 004°13'0 0.0
2018-Mar-30 06:30N 51°16' E 004°13'0 0.0
2018-Mar-30 05:57N 51°16' E 004°13'0 0.0
2018-Mar-30 05:30N 51°16' E 004°13'0 0.0
2018-Mar-30 05:00N 51°16' E 004°13'0 0.0
2018-Mar-30 04:30N 51°16' E 004°13'0 0.0
2018-Mar-30 04:00N 51°16' E 004°13'0 0.0
2018-Mar-30 03:30N 51°16' E 004°13'0 0.0
2018-Mar-30 02:57N 51°16' E 004°13'0 0.0
2018-Mar-30 02:30N 51°16' E 004°13'0 0.0
2018-Mar-30 01:57N 51°16' E 004°13'0 0.0
2018-Mar-30 01:29N 51°16' E 004°13'0 0.0
2018-Mar-30 00:59N 51°16' E 004°13'0 0.0
2018-Mar-30 00:29N 51°16' E 004°13'0 0.0
2018-Mar-29 23:59N 51°16' E 004°13'0 0.0
2018-Mar-29 23:29N 51°16' E 004°13'0 0.0
2018-Mar-29 22:59N 51°16' E 004°13'0 0.0
2018-Mar-29 22:29N 51°16' E 004°13'0 0.0
2018-Mar-29 21:59N 51°16' E 004°13'0 0.0
2018-Mar-29 21:29N 51°16' E 004°13'0 0.0
2018-Mar-29 20:59N 51°16' E 004°13'0 0.0
2018-Mar-29 20:29N 51°16' E 004°13'0 0.0
2018-Mar-29 19:59N 51°16' E 004°13'0 0.0
2018-Mar-29 19:29N 51°16' E 004°13'0 0.0
2018-Mar-29 18:59N 51°16' E 004°13'0 0.0
2018-Mar-29 18:29N 51°16' E 004°13'0 0.0
2018-Mar-29 17:59N 51°16' E 004°13'0 0.0
2018-Mar-29 17:29N 51°16' E 004°13'0 0.0
2018-Mar-29 16:59N 51°16' E 004°13'0 0.0
2018-Mar-29 16:29N 51°16' E 004°13'0 0.0
2018-Mar-29 15:59N 51°16' E 004°13'0 0.0
2018-Mar-29 15:29N 51°16' E 004°13'0 0.0
2018-Mar-29 14:59N 51°16' E 004°13'0 0.0
2018-Mar-29 14:29N 51°16' E 004°13'0 0.0
2018-Mar-29 13:59N 51°16' E 004°13'0 0.0
2018-Mar-29 13:29N 51°16' E 004°13'0 0.0
2018-Mar-29 12:59N 51°16' E 004°13'0 0.0
2018-Mar-29 12:29N 51°16' E 004°13'0 0.0
2018-Mar-29 11:59N 51°16' E 004°13'0 0.0
2018-Mar-29 11:29N 51°16' E 004°13'0 0.0
2018-Mar-29 10:59N 51°16' E 004°13'0 0.0
2018-Mar-29 10:29N 51°16' E 004°13'0 0.0
2018-Mar-29 09:59N 51°16' E 004°13'0 0.0
2018-Mar-29 09:29N 51°16' E 004°13'0 0.0
2018-Mar-29 08:59N 51°16' E 004°13'0 0.0
2018-Mar-29 08:29N 51°16' E 004°13'0 0.0
2018-Mar-29 07:59N 51°16' E 004°13'0 0.0
2018-Mar-29 07:29N 51°16' E 004°13'0 0.0
2018-Mar-29 06:59N 51°16' E 004°13'0 0.0
2018-Mar-29 06:29N 51°16' E 004°13'0 0.0
2018-Mar-29 05:59N 51°16' E 004°13'0 0.0
2018-Mar-29 05:29N 51°16' E 004°13'0 0.0
2018-Mar-29 04:59N 51°16' E 004°13'0 0.0
2018-Mar-29 04:29N 51°16' E 004°13'0 0.0
2018-Mar-29 03:59N 51°16' E 004°13'0 0.0
2018-Mar-29 03:29N 51°16' E 004°13'0 0.0
2018-Mar-29 02:59N 51°16' E 004°13'0 0.0
2018-Mar-29 02:29N 51°16' E 004°13'0 0.0
2018-Mar-29 01:59N 51°16' E 004°13'0 0.0
2018-Mar-29 01:29N 51°16' E 004°13'0 0.0
2018-Mar-29 00:59N 51°16' E 004°13'0 0.0
2018-Mar-29 00:29N 51°16' E 004°13'0 0.0
2018-Mar-28 23:59N 51°16' E 004°13'1 1.1
2018-Mar-28 23:31N 51°17' E 004°14'1 1.6
2018-Mar-28 23:00N 51°17' E 004°15'0 0.1
2018-Mar-28 22:30N 51°17' E 004°15'2 4.1
2018-Mar-28 22:01N 51°19' E 004°16'510.1
2018-Mar-28 21:31N 51°23' E 004°13'510.2
2018-Mar-28 21:01N 51°22' E 004°05'510.5
2018-Mar-28 20:31N 51°26' E 003°58'713.1
2018-Mar-28 20:00N 51°21' E 003°51'612.2
2018-Mar-28 19:30N 51°24' E 003°43'4 8.4
2018-Mar-28 19:00N 51°26' E 003°37'5 9.6
2018-Mar-28 18:30N 51°25' E 003°30'815.7
2018-Mar-28 18:01N 51°24' E 003°17'815.7
2018-Mar-28 17:30N 51°24' E 003°05'612.3
2018-Mar-28 17:00N 51°30' E 003°03'917.8
2018-Mar-28 16:30N 51°38' E 003°11'713.4
2018-Mar-28 15:59N 51°45' E 003°13'4 7.5
2018-Mar-28 15:29N 51°48' E 003°09'5 9.4
2018-Mar-28 15:00N 51°51' E 003°04'7713.9
2018-Mar-28 09:27N 52°59' E 004°02'  

Dump ship's entire track history